createdAt,value
2019-01-14T00:00:00.781Z,99.99
2019-01-14T00:01:00.799Z,99.99
2019-01-14T00:02:00.812Z,99.99
2019-01-14T00:03:00.831Z,99.99
2019-01-14T00:04:00.842Z,99.99
2019-01-14T00:05:00.861Z,99.99
2019-01-14T00:06:00.875Z,99.99
2019-01-14T00:07:00.889Z,99.99
2019-01-14T00:08:00.903Z,99.99
2019-01-14T00:09:00.919Z,99.99
2019-01-14T00:10:00.937Z,99.99
2019-01-14T00:11:01.000Z,99.99
2019-01-14T00:12:00.964Z,99.99
2019-01-14T00:13:00.979Z,99.99
2019-01-14T00:14:00.995Z,99.99
2019-01-14T00:15:01.015Z,99.99
2019-01-14T00:16:01.025Z,99.99
2019-01-14T00:17:01.042Z,99.99
2019-01-14T00:18:01.057Z,99.99
2019-01-14T00:20:01.086Z,99.99
2019-01-14T00:21:01.101Z,99.16
2019-01-14T00:22:01.117Z,98.78
2019-01-14T00:23:01.134Z,98.11
2019-01-14T00:24:01.180Z,98.21
2019-01-14T00:25:01.164Z,98.68
2019-01-14T00:27:15.855Z,98.4
2019-01-14T00:28:01.207Z,98.87
2019-01-14T00:29:01.223Z,98.3
2019-01-14T00:30:01.237Z,98.59
2019-01-14T00:31:01.252Z,98.87
2019-01-14T00:32:01.268Z,98.68
2019-01-14T00:33:01.283Z,98.3
2019-01-14T00:34:01.296Z,97.83
2019-01-14T00:35:01.311Z,97.83
2019-01-14T00:36:01.328Z,97.64
2019-01-14T00:37:01.345Z,97.74
2019-01-14T00:38:01.356Z,97.55
2019-01-14T00:39:01.375Z,97.74
2019-01-14T00:40:01.388Z,98.4
2019-01-14T00:42:01.416Z,97.74
2019-01-14T00:43:16.120Z,98.4
2019-01-14T00:44:01.447Z,97.83
2019-01-14T00:45:01.462Z,98.4
2019-01-14T00:46:01.478Z,99.06
2019-01-14T00:47:01.491Z,99.06
2019-01-14T00:48:01.508Z,99.16
2019-01-14T00:49:01.521Z,99.63
2019-01-14T00:50:01.542Z,99.44
2019-01-14T00:51:01.552Z,99.63
2019-01-14T00:52:01.566Z,99.26
2019-01-14T00:53:01.583Z,99.35
2019-01-14T00:55:01.674Z,99.26
2019-01-14T00:57:01.653Z,99.99
2019-01-14T00:58:01.657Z,99.99
2019-01-14T00:59:16.335Z,99.99
2019-01-14T01:00:01.689Z,99.82
2019-01-14T01:01:01.704Z,99.99
2019-01-14T01:02:01.715Z,99.99
2019-01-14T01:03:01.733Z,99.99
2019-01-14T01:04:01.751Z,99.99
2019-01-14T01:05:01.760Z,99.99
2019-01-14T01:06:01.837Z,99.99
2019-01-14T01:07:01.788Z,99.99
2019-01-14T01:08:01.805Z,99.99
2019-01-14T01:09:01.819Z,99.99
2019-01-14T01:10:01.834Z,99.99
2019-01-14T01:11:01.848Z,99.99
2019-01-14T01:13:01.883Z,99.99
2019-01-14T01:14:01.893Z,99.99
2019-01-14T01:15:16.572Z,99.99
2019-01-14T01:16:01.923Z,99.99
2019-01-14T01:17:01.945Z,99.99
2019-01-14T01:18:01.953Z,99.99
2019-01-14T01:19:01.968Z,99.99
2019-01-14T01:20:01.985Z,99.99
2019-01-14T01:21:01.999Z,99.99
2019-01-14T01:22:02.015Z,99.99
2019-01-14T01:23:02.027Z,99.99
2019-01-14T01:24:02.043Z,99.99
2019-01-14T01:25:02.115Z,99.99
2019-01-14T01:26:02.079Z,99.99
2019-01-14T01:27:02.089Z,99.99
2019-01-14T01:28:02.103Z,99.99
2019-01-14T01:29:02.117Z,99.99
2019-01-14T01:30:16.798Z,99.99
2019-01-14T01:31:02.147Z,99.99
2019-01-14T01:32:02.162Z,99.99
2019-01-14T01:33:02.180Z,99.99
2019-01-14T01:34:02.197Z,99.99
2019-01-14T01:35:02.209Z,99.99
2019-01-14T01:36:02.321Z,99.99
2019-01-14T01:37:02.236Z,99.99
2019-01-14T01:38:02.250Z,99.99
2019-01-14T01:40:02.280Z,99.99
2019-01-14T01:41:02.383Z,99.99
2019-01-14T01:42:02.309Z,99.99
2019-01-14T01:43:02.334Z,99.99
2019-01-14T01:44:02.341Z,99.99
2019-01-14T01:45:02.353Z,99.99
2019-01-14T01:46:02.374Z,99.99
2019-01-14T01:47:02.386Z,99.99
2019-01-14T01:48:02.400Z,99.99
2019-01-14T01:49:02.414Z,99.99
2019-01-14T01:50:02.528Z,99.99
2019-01-14T01:51:02.445Z,99.99
2019-01-14T01:52:02.478Z,99.99
2019-01-14T01:53:02.472Z,99.99
2019-01-14T01:54:02.487Z,99.99
2019-01-14T01:55:02.372Z,99.99
2019-01-14T01:56:02.516Z,99.99
2019-01-14T01:57:02.531Z,99.99
2019-01-14T01:58:02.544Z,99.99
2019-01-14T01:59:02.561Z,99.99
2019-01-14T02:00:02.577Z,99.99
2019-01-14T02:01:02.588Z,99.99
2019-01-14T02:02:17.267Z,99.99
2019-01-14T02:03:02.617Z,99.99
2019-01-14T02:04:02.635Z,99.99
2019-01-14T02:05:02.651Z,99.99
2019-01-14T02:06:02.665Z,99.99
2019-01-14T02:07:02.678Z,99.99
2019-01-14T02:08:02.691Z,99.99
2019-01-14T02:09:02.708Z,99.99
2019-01-14T02:10:02.721Z,99.99
2019-01-14T02:11:02.736Z,99.99
2019-01-14T02:12:02.751Z,99.99
2019-01-14T02:13:02.762Z,99.99
2019-01-14T02:14:02.777Z,99.99
2019-01-14T02:15:02.794Z,99.99
2019-01-14T02:16:02.808Z,99.99
2019-01-14T02:17:02.826Z,99.99
2019-01-14T02:18:17.499Z,99.99
2019-01-14T02:19:02.856Z,99.99
2019-01-14T02:20:02.617Z,99.99
2019-01-14T02:21:02.881Z,99.99
2019-01-14T02:22:02.893Z,99.99
2019-01-14T02:23:02.909Z,99.99
2019-01-14T02:24:02.926Z,99.99
2019-01-14T02:25:02.938Z,99.99
2019-01-14T02:26:02.966Z,99.99
2019-01-14T02:27:02.969Z,99.99
2019-01-14T02:28:02.981Z,99.99
2019-01-14T02:29:02.996Z,99.99
2019-01-14T02:30:03.019Z,99.99
2019-01-14T02:32:03.043Z,99.99
2019-01-14T02:33:03.148Z,99.99
2019-01-14T02:34:17.731Z,99.99
2019-01-14T02:35:03.082Z,99.99
2019-01-14T02:36:03.099Z,99.99
2019-01-14T02:37:03.114Z,99.99
2019-01-14T02:38:03.127Z,99.99
2019-01-14T02:39:03.143Z,99.99
2019-01-14T02:40:03.155Z,99.99
2019-01-14T02:41:03.173Z,99.99
2019-01-14T02:42:03.182Z,99.99
2019-01-14T02:43:03.206Z,99.99
2019-01-14T02:44:03.222Z,99.99
2019-01-14T02:45:03.227Z,99.99
2019-01-14T02:46:03.246Z,99.99
2019-01-14T02:47:03.257Z,99.99
2019-01-14T02:48:03.272Z,99.99
2019-01-14T02:49:03.287Z,99.99
2019-01-14T02:50:17.962Z,99.99
2019-01-14T02:51:03.319Z,99.99
2019-01-14T02:52:03.335Z,99.99
2019-01-14T02:53:03.358Z,99.99
2019-01-14T02:54:03.357Z,99.99
2019-01-14T02:55:03.374Z,99.99
2019-01-14T02:56:03.441Z,99.99
2019-01-14T02:57:03.407Z,99.99
2019-01-14T02:59:03.431Z,99.99
2019-01-14T03:00:03.455Z,99.68
2019-01-14T03:02:03.472Z,99.99
2019-01-14T03:03:03.490Z,99.99
2019-01-14T03:04:03.501Z,99.77
2019-01-14T03:05:18.178Z,99.11
2019-01-14T03:06:03.530Z,99.3
2019-01-14T03:07:03.543Z,98.92
2019-01-14T03:08:03.612Z,99.39
2019-01-14T03:09:03.582Z,99.2
2019-01-14T03:10:03.588Z,99.01
2019-01-14T03:11:03.610Z,98.63
2019-01-14T03:12:03.616Z,98.35
2019-01-14T03:13:03.629Z,98.54
2019-01-14T03:14:03.643Z,98.82
2019-01-14T03:15:03.663Z,98.54
2019-01-14T03:16:03.673Z,98.11
2019-01-14T03:18:03.701Z,97.97
2019-01-14T03:19:03.716Z,97.92
2019-01-14T03:20:03.832Z,97.59
2019-01-14T03:21:03.747Z,97.21
2019-01-14T03:22:03.762Z,97.12
2019-01-14T03:23:03.775Z,97.59
2019-01-14T03:24:03.790Z,97.78
2019-01-14T03:25:03.818Z,97.5
2019-01-14T03:26:03.820Z,97.4
2019-01-14T03:27:03.831Z,98.11
2019-01-14T03:28:03.856Z,97.07
2019-01-14T03:29:03.860Z,97.4
2019-01-14T03:30:03.886Z,97.02
2019-01-14T03:31:03.893Z,97.36
2019-01-14T03:32:03.909Z,97.36
2019-01-14T03:33:04.040Z,96.17
2019-01-14T03:34:03.934Z,95.79
2019-01-14T03:35:03.966Z,96.5
2019-01-14T03:36:03.967Z,96.36
2019-01-14T03:37:18.637Z,96.41
2019-01-14T03:38:03.996Z,95.98
2019-01-14T03:39:04.006Z,96.26
2019-01-14T03:40:03.778Z,96.08
2019-01-14T03:41:04.031Z,96.55
2019-01-14T03:42:04.048Z,96.36
2019-01-14T03:43:04.062Z,95.79
2019-01-14T03:44:04.076Z,96.41
2019-01-14T03:45:04.096Z,96.26
2019-01-14T03:50:03.922Z,96.17
2019-01-14T03:51:04.206Z,96.36
2019-01-14T03:52:04.190Z,97.02
2019-01-14T03:53:18.867Z,95.79
2019-01-14T03:54:04.252Z,96.26
2019-01-14T03:55:04.242Z,95.79
2019-01-14T03:56:04.249Z,95.98
2019-01-14T03:57:04.265Z,95.79
2019-01-14T03:58:04.279Z,95.41
2019-01-14T03:59:04.291Z,95.31
2019-01-14T04:01:04.323Z,94.93
2019-01-14T04:02:04.334Z,95.03
2019-01-14T04:03:04.347Z,94.93
2019-01-14T04:04:04.366Z,95.31
2019-01-14T04:05:04.383Z,94.93
2019-01-14T04:06:04.394Z,94.84
2019-01-14T04:07:04.405Z,95.03
2019-01-14T04:08:04.436Z,94.84
2019-01-14T04:09:19.095Z,94.74
2019-01-14T04:10:04.448Z,94.84
2019-01-14T04:11:04.462Z,95.03
2019-01-14T04:12:04.475Z,95.69
2019-01-14T04:13:04.493Z,95.31
2019-01-14T04:14:04.506Z,95.41
2019-01-14T04:15:04.523Z,95.41
2019-01-14T04:16:04.535Z,95.88
2019-01-14T04:17:04.549Z,95.41
2019-01-14T04:18:04.583Z,95.41
2019-01-14T04:19:04.579Z,94.93
2019-01-14T04:20:04.613Z,94.84
2019-01-14T04:21:04.605Z,94.93
2019-01-14T04:22:04.621Z,95.31
2019-01-14T04:23:04.645Z,94.56
2019-01-14T04:24:04.652Z,94.46
2019-01-14T04:25:19.324Z,94.18
2019-01-14T04:26:04.683Z,94.18
2019-01-14T04:27:04.699Z,94.27
2019-01-14T04:28:04.702Z,93.61
2019-01-14T04:29:04.716Z,94.18
2019-01-14T04:30:04.783Z,94.08
2019-01-14T04:31:04.744Z,93.99
2019-01-14T04:32:04.762Z,93.7
2019-01-14T04:33:04.795Z,93.23
2019-01-14T04:34:04.800Z,92.47
2019-01-14T04:35:04.806Z,93.13
2019-01-14T04:36:04.824Z,93.23
2019-01-14T04:37:04.831Z,92.18
2019-01-14T04:38:04.850Z,93.13
2019-01-14T04:39:04.872Z,93.23
2019-01-14T04:40:19.535Z,92.28
2019-01-14T04:41:04.892Z,92.52
2019-01-14T04:42:04.901Z,92.99
2019-01-14T04:43:04.914Z,92.52
2019-01-14T04:44:04.934Z,92.99
2019-01-14T04:45:04.943Z,92.9
2019-01-14T04:46:04.959Z,92.04
2019-01-14T04:47:04.971Z,91.57
2019-01-14T04:48:04.985Z,91.19
2019-01-14T04:49:05.001Z,91.47
2019-01-14T04:50:05.013Z,91.66
2019-01-14T04:51:05.026Z,91.28
2019-01-14T04:53:05.053Z,91
2019-01-14T04:55:05.081Z,89.48
2019-01-14T04:56:05.097Z,89.48
2019-01-14T04:57:05.109Z,89.01
2019-01-14T04:58:05.126Z,89.2
2019-01-14T04:59:05.138Z,89.48
2019-01-14T05:00:05.157Z,88.92
2019-01-14T05:01:05.165Z,89.11
2019-01-14T05:02:05.178Z,88.35
2019-01-14T05:03:05.191Z,87.3
2019-01-14T05:04:05.229Z,87.49
2019-01-14T05:05:05.221Z,87.49
2019-01-14T05:06:05.258Z,87.97
2019-01-14T05:08:05.265Z,87.4
2019-01-14T05:09:05.274Z,87.4
2019-01-14T05:10:05.289Z,87.87
2019-01-14T05:11:05.304Z,87.68
2019-01-14T05:12:19.977Z,86.98
2019-01-14T05:13:05.332Z,87.45
2019-01-14T05:14:05.345Z,87.83
2019-01-14T05:15:05.109Z,87.26
2019-01-14T05:16:05.368Z,87.35
2019-01-14T05:17:05.387Z,86.88
2019-01-14T05:19:05.431Z,86.88
2019-01-14T05:20:05.428Z,86.6
2019-01-14T05:21:05.439Z,86.79
2019-01-14T05:22:05.452Z,86.98
2019-01-14T05:23:05.227Z,86.41
2019-01-14T05:25:05.494Z,87.21
2019-01-14T05:26:05.505Z,86.64
2019-01-14T05:27:05.522Z,87.21
2019-01-14T05:28:20.196Z,86.16
2019-01-14T05:29:05.547Z,86.35
2019-01-14T05:30:05.559Z,86.26
2019-01-14T05:31:05.575Z,85.88
2019-01-14T05:32:05.591Z,86.26
2019-01-14T05:33:05.600Z,86.07
2019-01-14T05:34:05.616Z,85.78
2019-01-14T05:35:05.638Z,86.64
2019-01-14T05:36:05.648Z,86.55
2019-01-14T05:37:05.654Z,86.64
2019-01-14T05:38:05.669Z,87.59
2019-01-14T05:39:05.688Z,87.3
2019-01-14T05:41:05.714Z,87.97
2019-01-14T05:42:05.724Z,87.97
2019-01-14T05:43:05.738Z,88.44
2019-01-14T05:44:20.413Z,88.44
2019-01-14T05:45:05.765Z,89.53
2019-01-14T05:46:05.784Z,89.25
2019-01-14T05:47:05.792Z,89.53
2019-01-14T05:48:05.810Z,89.72
2019-01-14T05:49:05.821Z,89.82
2019-01-14T05:50:05.833Z,89.39
2019-01-14T05:51:05.848Z,89.39
2019-01-14T05:52:05.859Z,89.48
2019-01-14T05:53:05.875Z,89.48
2019-01-14T05:54:05.888Z,90.01
2019-01-14T05:55:05.899Z,89.91
2019-01-14T05:56:05.917Z,90.29
2019-01-14T05:57:05.930Z,90.58
2019-01-14T05:58:05.941Z,90.1
2019-01-14T05:59:05.953Z,89.91
2019-01-14T06:00:20.631Z,89.77
2019-01-14T06:01:05.998Z,89.39
2019-01-14T06:02:05.995Z,89.53
2019-01-14T06:03:06.012Z,89.25
2019-01-14T06:04:06.021Z,89.34
2019-01-14T06:05:06.038Z,88.49
2019-01-14T06:06:06.051Z,88.3
2019-01-14T06:07:06.065Z,88.25
2019-01-14T06:08:06.081Z,88.63
2019-01-14T06:09:06.099Z,88.06
2019-01-14T06:10:06.116Z,87.97
2019-01-14T06:11:06.120Z,87.87
2019-01-14T06:12:06.147Z,87.87
2019-01-14T06:13:06.153Z,87.3
2019-01-14T06:14:06.160Z,88.16
2019-01-14T06:15:20.842Z,87.21
2019-01-14T06:17:06.264Z,87.12
2019-01-14T06:18:06.212Z,87.77
2019-01-14T06:19:06.229Z,86.93
2019-01-14T06:20:06.243Z,87.68
2019-01-14T06:21:06.264Z,87.4
2019-01-14T06:22:06.276Z,86.93
2019-01-14T06:23:06.281Z,86.83
2019-01-14T06:24:06.295Z,87.59
2019-01-14T06:26:06.324Z,87.4
2019-01-14T06:27:06.335Z,87.12
2019-01-14T06:28:06.374Z,87.12
2019-01-14T06:29:06.364Z,86.83
2019-01-14T06:30:06.377Z,87.4
2019-01-14T06:31:06.392Z,87.12
2019-01-14T06:32:06.403Z,86.35
2019-01-14T06:33:06.417Z,86.55
2019-01-14T06:34:06.434Z,86.55
2019-01-14T06:35:06.444Z,87.12
2019-01-14T06:36:06.461Z,88.44
2019-01-14T06:37:06.542Z,90.53
2019-01-14T06:38:06.485Z,94.27
2019-01-14T06:39:06.498Z,97.21
2019-01-14T06:40:06.511Z,99.99
2019-01-14T06:41:06.525Z,99.99
2019-01-14T06:42:09.973Z,99.99
2019-01-14T06:45:06.580Z,99.99
2019-01-14T06:47:21.269Z,99.99
2019-01-14T06:48:06.619Z,99.99
2019-01-14T06:49:06.635Z,99.99
2019-01-14T06:50:06.647Z,99.99
2019-01-14T06:51:06.659Z,99.99
2019-01-14T06:52:06.677Z,99.99
2019-01-14T06:53:06.686Z,99.99
2019-01-14T06:54:06.702Z,99.99
2019-01-14T06:55:06.713Z,99.99
2019-01-14T06:57:06.739Z,99.99
2019-01-14T06:58:06.754Z,99.99
2019-01-14T06:59:06.765Z,99.99
2019-01-14T07:00:06.778Z,99.99
2019-01-14T07:01:06.792Z,99.99
2019-01-14T07:02:06.809Z,99.99
2019-01-14T07:03:21.479Z,99.99
2019-01-14T07:04:06.830Z,99.99
2019-01-14T07:05:06.844Z,99.99
2019-01-14T07:06:06.856Z,99.99
2019-01-14T07:07:06.869Z,99.99
2019-01-14T07:08:06.883Z,99.99
2019-01-14T07:09:06.896Z,99.99
2019-01-14T07:10:06.910Z,99.99
2019-01-14T07:11:06.959Z,99.99
2019-01-14T07:12:06.933Z,99.99
2019-01-14T07:15:06.972Z,99.99
2019-01-14T07:17:06.995Z,99.99
2019-01-14T07:18:08.424Z,99.99
2019-01-14T07:19:21.688Z,99.99
2019-01-14T07:20:07.034Z,99.99
2019-01-14T07:21:07.048Z,99.99
2019-01-14T07:22:07.065Z,99.99
2019-01-14T07:23:08.224Z,99.99
2019-01-14T07:24:07.089Z,99.99
2019-01-14T07:25:07.099Z,99.99
2019-01-14T07:26:07.112Z,99.99
2019-01-14T07:27:07.130Z,99.99
2019-01-14T07:28:07.136Z,99.99
2019-01-14T07:29:08.858Z,99.99
2019-01-14T07:30:07.165Z,99.99
2019-01-14T07:32:07.190Z,99.99
2019-01-14T07:33:07.205Z,99.99
2019-01-14T07:34:07.217Z,99.99
2019-01-14T07:35:21.889Z,99.99
2019-01-14T07:36:07.242Z,99.99
2019-01-14T07:37:07.256Z,99.99
2019-01-14T07:38:09.362Z,99.99
2019-01-14T07:39:07.299Z,99.99
2019-01-14T07:40:07.852Z,99.99
2019-01-14T07:41:07.310Z,99.99
2019-01-14T07:42:07.318Z,99.99
2019-01-14T07:43:07.333Z,99.99
2019-01-14T07:44:07.342Z,99.99
2019-01-14T07:46:07.366Z,99.99
2019-01-14T07:48:07.395Z,99.99
2019-01-14T07:49:07.411Z,99.99
2019-01-14T07:50:22.083Z,99.99
2019-01-14T07:51:07.435Z,99.99
2019-01-14T07:52:07.445Z,99.99
2019-01-14T07:53:07.458Z,99.99
2019-01-14T07:54:07.472Z,99.99
2019-01-14T07:55:07.483Z,99.99
2019-01-14T07:56:07.499Z,99.99
2019-01-14T07:57:07.520Z,99.99
2019-01-14T07:58:07.533Z,99.99
2019-01-14T07:59:07.535Z,99.99
2019-01-14T08:01:07.562Z,99.99
2019-01-14T08:02:07.581Z,99.62
2019-01-14T08:03:07.588Z,99.24
2019-01-14T08:04:07.655Z,98.58
2019-01-14T08:05:07.621Z,97.35
2019-01-14T08:06:07.629Z,96.31
2019-01-14T08:07:07.645Z,95.45
2019-01-14T08:08:13.888Z,94.79
2019-01-14T08:09:08.854Z,94.7
2019-01-14T08:10:07.700Z,94.98
2019-01-14T08:11:07.694Z,94.04
2019-01-14T08:12:07.705Z,92.99
2019-01-14T08:13:07.719Z,93.27
2019-01-14T08:14:07.734Z,93.08
2019-01-14T08:15:07.748Z,93.65
2019-01-14T08:17:07.775Z,92.71
2019-01-14T08:18:07.811Z,92.52
2019-01-14T08:19:07.847Z,92.8
2019-01-14T08:20:07.816Z,92.24
2019-01-14T08:21:07.822Z,92.43
2019-01-14T08:22:22.503Z,92.24
2019-01-14T08:23:07.851Z,92.8
2019-01-14T08:24:07.620Z,92.43
2019-01-14T08:25:07.875Z,93.65
2019-01-14T08:26:07.890Z,94.04
2019-01-14T08:27:07.902Z,93.75
2019-01-14T08:28:07.917Z,92.8
2019-01-14T08:29:07.929Z,93.46
2019-01-14T08:30:07.942Z,92.99
2019-01-14T08:31:07.963Z,92.99
2019-01-14T08:32:07.973Z,93.08
2019-01-14T08:33:07.983Z,93.46
2019-01-14T08:34:07.995Z,93.46
2019-01-14T08:35:08.023Z,93.75
2019-01-14T08:37:08.517Z,93.46
2019-01-14T08:38:22.713Z,93.27
2019-01-14T08:39:08.065Z,93.27
2019-01-14T08:40:08.076Z,93.08
2019-01-14T08:41:08.089Z,93.27
2019-01-14T08:42:08.107Z,93.94
2019-01-14T08:43:08.118Z,93.27
2019-01-14T08:44:08.131Z,93.08
2019-01-14T08:45:08.147Z,92.43
2019-01-14T08:46:08.158Z,93.08
2019-01-14T08:47:08.173Z,92.9
2019-01-14T08:48:08.184Z,92.9
2019-01-14T08:49:08.197Z,92.43
2019-01-14T08:50:08.212Z,93.08
2019-01-14T08:51:08.223Z,92.9
2019-01-14T08:52:08.243Z,92.99
2019-01-14T08:53:08.254Z,93.08
2019-01-14T08:54:22.926Z,92.24
2019-01-14T08:55:08.276Z,92.33
2019-01-14T08:56:08.391Z,92.61
2019-01-14T08:57:08.305Z,92.33
2019-01-14T08:58:08.318Z,91.86
2019-01-14T08:59:08.331Z,92.33
2019-01-14T09:00:08.345Z,92.05
2019-01-14T09:01:08.358Z,91.76
2019-01-14T09:02:08.370Z,91.29
2019-01-14T09:03:08.411Z,91.76
2019-01-14T09:04:08.397Z,91.86
2019-01-14T09:05:08.466Z,91.48
2019-01-14T09:06:08.431Z,90.91
2019-01-14T09:07:08.439Z,90.15
2019-01-14T09:08:08.451Z,89.87
2019-01-14T09:09:08.474Z,89.96
2019-01-14T09:10:23.142Z,90.34
2019-01-14T09:11:08.492Z,90.06
2019-01-14T09:12:08.506Z,89.87
2019-01-14T09:13:08.524Z,90.06
2019-01-14T09:14:08.532Z,90.15
2019-01-14T09:15:08.549Z,90.06
2019-01-14T09:16:08.558Z,89.2
2019-01-14T09:17:08.573Z,89.2
2019-01-14T09:18:08.585Z,89.58
2019-01-14T09:19:08.600Z,88.45
2019-01-14T09:20:08.612Z,88.07
2019-01-14T09:21:08.626Z,88.35
2019-01-14T09:22:08.639Z,89.11
2019-01-14T09:23:08.757Z,88.82
2019-01-14T09:24:08.772Z,88.07
2019-01-14T09:25:23.346Z,87.69
2019-01-14T09:26:08.694Z,87.31
2019-01-14T09:27:08.708Z,86.74
2019-01-14T09:28:08.723Z,87.02
2019-01-14T09:29:08.737Z,86.93
2019-01-14T09:30:08.755Z,87.02
2019-01-14T09:31:08.764Z,87.12
2019-01-14T09:32:08.529Z,86.36
2019-01-14T09:33:08.794Z,86.18
2019-01-14T09:35:08.816Z,85.7
2019-01-14T09:36:08.829Z,84.94
2019-01-14T09:38:08.859Z,84.75
2019-01-14T09:39:08.870Z,85.23
2019-01-14T09:40:08.886Z,85.55
2019-01-14T09:41:08.902Z,85.65
2019-01-14T09:42:08.909Z,86.18
2019-01-14T09:43:08.926Z,86.03
2019-01-14T09:44:08.941Z,85.61
2019-01-14T09:45:08.950Z,84.85
2019-01-14T09:46:08.965Z,84.47
2019-01-14T09:47:08.977Z,85.74
2019-01-14T09:48:08.999Z,84.99
2019-01-14T09:49:09.003Z,85.27
2019-01-14T09:50:09.019Z,84.99
2019-01-14T09:51:09.035Z,84.51
2019-01-14T09:52:09.045Z,85.42
2019-01-14T09:53:09.059Z,85.55
2019-01-14T09:54:09.072Z,84.47
2019-01-14T09:55:09.086Z,84.89
2019-01-14T09:56:09.102Z,84.8
2019-01-14T09:57:23.875Z,84.42
2019-01-14T09:58:09.126Z,83.56
2019-01-14T09:59:09.143Z,82.33
2019-01-14T10:00:09.167Z,81.48
2019-01-14T10:01:09.168Z,81.86
2019-01-14T10:02:09.182Z,81.95
2019-01-14T10:03:09.763Z,81.95
2019-01-14T10:05:09.225Z,82.52
2019-01-14T10:06:09.237Z,82.05
2019-01-14T10:07:09.302Z,81.95
2019-01-14T10:08:09.305Z,81.86
2019-01-14T10:09:09.280Z,82.05
2019-01-14T10:10:09.293Z,80.91
2019-01-14T10:11:09.304Z,81.29
2019-01-14T10:12:09.319Z,80.82
2019-01-14T10:13:23.996Z,80.44
2019-01-14T10:14:09.350Z,80.25
2019-01-14T10:15:09.374Z,80.25
2019-01-14T10:16:09.375Z,80.25
2019-01-14T10:17:09.389Z,80.06
2019-01-14T10:18:09.403Z,79.96
2019-01-14T10:19:09.418Z,79.96
2019-01-14T10:20:09.432Z,80.06
2019-01-14T10:21:09.449Z,79.77
2019-01-14T10:22:09.462Z,79.39
2019-01-14T10:23:09.475Z,79.58
2019-01-14T10:24:09.493Z,79.21
2019-01-14T10:27:09.531Z,79.39
2019-01-14T10:28:09.544Z,80.53
2019-01-14T10:29:24.223Z,80.63
2019-01-14T10:30:09.674Z,80.34
2019-01-14T10:31:09.589Z,81.38
2019-01-14T10:32:09.607Z,81.38
2019-01-14T10:33:22.352Z,81.48
2019-01-14T10:34:09.632Z,81.29
2019-01-14T10:36:09.661Z,81.38
2019-01-14T10:37:09.687Z,80.53
2019-01-14T10:38:09.688Z,80.53
2019-01-14T10:39:09.703Z,80.91
2019-01-14T10:40:09.722Z,80.44
2019-01-14T10:42:09.751Z,81.1
2019-01-14T10:43:09.763Z,81.2
2019-01-14T10:44:09.772Z,80.91
2019-01-14T10:45:24.449Z,80.91
2019-01-14T10:46:09.802Z,80.91
2019-01-14T10:47:09.817Z,81.1
2019-01-14T10:48:09.830Z,80.63
2019-01-14T10:49:09.843Z,80.53
2019-01-14T10:50:09.856Z,80.72
2019-01-14T10:51:09.869Z,80.53
2019-01-14T10:52:09.886Z,80
2019-01-14T10:54:09.913Z,79.21
2019-01-14T10:55:14.843Z,79.96
2019-01-14T10:56:10.147Z,79.39
2019-01-14T10:58:09.970Z,79.77
2019-01-14T10:59:09.985Z,79.11
2019-01-14T11:00:24.677Z,79.3
2019-01-14T11:01:10.014Z,79.02
2019-01-14T11:02:10.025Z,78.45
2019-01-14T11:03:10.039Z,79.39
2019-01-14T11:04:10.059Z,78.64
2019-01-14T11:05:10.069Z,78.73
2019-01-14T11:06:10.085Z,79.39
2019-01-14T11:07:10.096Z,79.77
2019-01-14T11:08:10.112Z,79.3
2019-01-14T11:09:10.137Z,78.54
2019-01-14T11:10:10.137Z,78.73
2019-01-14T11:11:10.151Z,79.68
2019-01-14T11:12:10.171Z,80
2019-01-14T11:14:10.194Z,80.19
2019-01-14T11:15:10.209Z,80.48
2019-01-14T11:16:10.223Z,79.53
2019-01-14T11:17:10.245Z,79.53
2019-01-14T11:18:10.266Z,78.96
2019-01-14T11:19:10.264Z,78.11
2019-01-14T11:20:10.281Z,79.06
2019-01-14T11:21:14.344Z,78.77
2019-01-14T11:22:10.307Z,78.11
2019-01-14T11:23:10.325Z,78.2
2019-01-14T11:24:10.334Z,78.67
2019-01-14T11:26:10.362Z,79.44
2019-01-14T11:27:10.430Z,78.49
2019-01-14T11:29:10.407Z,77.45
2019-01-14T11:30:10.421Z,76.59
2019-01-14T11:31:10.480Z,76.78
2019-01-14T11:32:25.111Z,76.87
2019-01-14T11:33:10.462Z,76.97
2019-01-14T11:34:10.478Z,77.54
2019-01-14T11:35:10.491Z,77.35
2019-01-14T11:36:10.506Z,76.74
2019-01-14T11:37:10.522Z,75.89
2019-01-14T11:38:10.533Z,75.23
2019-01-14T11:39:10.550Z,74.95
2019-01-14T11:40:10.562Z,75.07
2019-01-14T11:41:10.574Z,74.6
2019-01-14T11:42:10.591Z,74.79
2019-01-14T11:43:10.603Z,75.74
2019-01-14T11:44:10.618Z,75.64
2019-01-14T11:45:10.631Z,75.17
2019-01-14T11:47:10.658Z,74.03
2019-01-14T11:48:25.336Z,74.47
2019-01-14T11:49:10.690Z,74.32
2019-01-14T11:50:10.700Z,74.13
2019-01-14T11:51:10.715Z,74.03
2019-01-14T11:52:10.729Z,74.41
2019-01-14T11:53:10.746Z,73.71
2019-01-14T11:54:10.761Z,74.47
2019-01-14T11:55:10.775Z,73.61
2019-01-14T11:56:10.787Z,74.37
2019-01-14T11:57:10.802Z,74.56
2019-01-14T11:58:10.813Z,74.03
2019-01-14T11:59:10.828Z,73.9
2019-01-14T12:00:10.843Z,74.22
2019-01-14T12:01:10.863Z,73.61
2019-01-14T12:02:10.869Z,73.8
2019-01-14T12:03:11.188Z,73.43
2019-01-14T12:04:25.662Z,72.96
2019-01-14T12:05:10.910Z,73.43
2019-01-14T12:06:10.924Z,73.61
2019-01-14T12:07:10.938Z,74.13
2019-01-14T12:08:10.951Z,73.94
2019-01-14T12:09:14.941Z,73.05
2019-01-14T12:10:10.981Z,73.27
2019-01-14T12:11:10.998Z,73.8
2019-01-14T12:12:11.010Z,73.14
2019-01-14T12:13:11.061Z,73.61
2019-01-14T12:14:11.034Z,73.84
2019-01-14T12:15:11.049Z,73.71
2019-01-14T12:16:11.084Z,73.9
2019-01-14T12:17:11.080Z,73.52
2019-01-14T12:18:11.093Z,73.8
2019-01-14T12:19:11.103Z,73.61
2019-01-14T12:20:25.779Z,73.52
2019-01-14T12:21:11.132Z,73.61
2019-01-14T12:22:11.145Z,73.61
2019-01-14T12:23:11.162Z,73.71
2019-01-14T12:24:11.172Z,73.33
2019-01-14T12:25:11.197Z,73.9
2019-01-14T12:26:11.199Z,73.46
2019-01-14T12:27:11.212Z,73.61
2019-01-14T12:28:11.227Z,74.32
2019-01-14T12:29:11.443Z,74.13
2019-01-14T12:30:11.256Z,73.75
2019-01-14T12:31:11.268Z,73.56
2019-01-14T12:32:11.281Z,73.18
2019-01-14T12:33:11.297Z,72.77
2019-01-14T12:34:11.308Z,72.96
2019-01-14T12:35:25.987Z,73.33
2019-01-14T12:36:11.337Z,73.14
2019-01-14T12:37:11.355Z,73.05
2019-01-14T12:38:11.364Z,73.14
2019-01-14T12:39:11.378Z,73.9
2019-01-14T12:40:11.394Z,73.52
2019-01-14T12:41:11.406Z,73.9
2019-01-14T12:42:11.420Z,73.24
2019-01-14T12:43:11.433Z,73.33
2019-01-14T12:44:11.448Z,73.14
2019-01-14T12:45:11.461Z,72.96
2019-01-14T12:46:11.474Z,72.38
2019-01-14T12:47:11.492Z,73.33
2019-01-14T12:48:11.501Z,73.05
2019-01-14T12:49:11.517Z,74.18
2019-01-14T12:50:11.529Z,74.09
2019-01-14T12:51:11.547Z,73.99
2019-01-14T12:52:11.557Z,74.37
2019-01-14T12:53:11.569Z,73.9
2019-01-14T12:54:11.589Z,73.14
2019-01-14T12:55:11.595Z,73.71
2019-01-14T12:56:11.614Z,73.52
2019-01-14T12:57:11.624Z,73.71
2019-01-14T12:58:11.638Z,73.71
2019-01-14T12:59:11.651Z,74.28
2019-01-14T13:00:11.665Z,75.23
2019-01-14T13:01:11.679Z,74.75
2019-01-14T13:03:11.704Z,78.69
2019-01-14T13:05:11.730Z,82.86
2019-01-14T13:06:11.745Z,85.47
2019-01-14T13:07:26.419Z,88.59
2019-01-14T13:08:11.774Z,91.62
2019-01-14T13:09:11.783Z,94.84
2019-01-14T13:10:11.796Z,94.08
2019-01-14T13:11:11.816Z,92.94
2019-01-14T13:12:11.825Z,91.43
2019-01-14T13:13:11.835Z,90.67
2019-01-14T13:14:11.848Z,90.11
2019-01-14T13:15:11.862Z,90.58
2019-01-14T13:16:11.874Z,92.66
2019-01-14T13:17:11.886Z,95.55
2019-01-14T13:18:11.906Z,97.72
2019-01-14T13:19:11.671Z,99.62
2019-01-14T13:20:11.928Z,99.99
2019-01-14T13:21:11.938Z,99.99
2019-01-14T13:22:11.951Z,99.99
2019-01-14T13:23:26.626Z,99.99
2019-01-14T13:24:11.979Z,99.99
2019-01-14T13:25:11.989Z,99.99
2019-01-14T13:26:12.001Z,99.99
2019-01-14T13:27:12.016Z,99.1
2019-01-14T13:28:12.028Z,98.06
2019-01-14T13:29:15.215Z,95.88
2019-01-14T13:30:12.051Z,95.03
2019-01-14T13:31:12.065Z,93.8
2019-01-14T13:32:12.091Z,92.94
2019-01-14T13:33:12.090Z,93.13
2019-01-14T13:34:12.103Z,91.77
2019-01-14T13:35:12.116Z,90.53
2019-01-14T13:36:12.138Z,89.59
2019-01-14T13:37:12.141Z,89.31
2019-01-14T13:38:12.155Z,87.98
2019-01-14T13:39:33.716Z,87.32
2019-01-14T13:40:12.189Z,87.08
2019-01-14T13:41:12.191Z,86.09
2019-01-14T13:42:12.203Z,85.85
2019-01-14T13:43:12.216Z,87.08
2019-01-14T13:44:12.228Z,87.27
2019-01-14T13:45:12.241Z,88.21
2019-01-14T13:46:12.255Z,90.25